createdAt,value
2019-03-31T00:01:55.649Z,85.49
2019-03-31T00:04:26.082Z,85.19
2019-03-31T00:06:56.563Z,85.17
2019-03-31T00:09:27.987Z,84.97
2019-03-31T00:11:58.499Z,85.20
2019-03-31T00:14:28.933Z,84.96
2019-03-31T00:16:59.511Z,85.16
2019-03-31T00:19:29.950Z,84.98
2019-03-31T00:22:00.459Z,85.04
2019-03-31T00:24:30.906Z,85.00
2019-03-31T00:27:01.399Z,84.60
2019-03-31T00:29:31.809Z,84.57
2019-03-31T00:32:02.288Z,84.93
2019-03-31T00:34:32.723Z,85.16
2019-03-31T00:37:03.621Z,85.56
2019-03-31T00:39:34.054Z,85.14
2019-03-31T00:42:04.623Z,85.22
2019-03-31T00:44:35.080Z,85.18
2019-03-31T00:47:05.541Z,85.52
2019-03-31T00:49:38.034Z,85.05
2019-03-31T00:52:08.518Z,85.01
2019-03-31T00:54:38.920Z,85.11
2019-03-31T00:57:09.385Z,85.61
2019-03-31T00:59:39.788Z,85.95
2019-03-31T01:02:11.857Z,86.87
2019-03-31T01:04:42.312Z,86.75
2019-03-31T01:07:12.823Z,86.46
2019-03-31T01:09:44.191Z,86.33
2019-03-31T01:12:14.873Z,86.20
2019-03-31T01:14:45.330Z,86.04
2019-03-31T01:17:18.878Z,86.08
2019-03-31T01:19:48.943Z,86.06
2019-03-31T01:22:19.433Z,86.45
2019-03-31T01:24:49.888Z,86.14
2019-03-31T01:27:20.462Z,86.35
2019-03-31T01:29:50.880Z,86.16
2019-03-31T01:32:21.492Z,86.55
2019-03-31T01:34:51.949Z,86.99
2019-03-31T01:37:22.857Z,87.14
2019-03-31T01:39:54.118Z,87.17
2019-03-31T01:42:24.708Z,87.37
2019-03-31T01:44:55.188Z,87.26
2019-03-31T01:47:25.664Z,86.85
2019-03-31T01:49:56.111Z,86.33
2019-03-31T01:52:26.561Z,86.37
2019-03-31T01:54:58.033Z,86.51
2019-03-31T01:57:28.488Z,86.83
2019-03-31T01:59:58.922Z,86.90
2019-03-31T02:02:30.845Z,86.85
2019-03-31T02:05:01.293Z,87.01
2019-03-31T02:07:31.764Z,86.87
2019-03-31T02:10:06.370Z,87.35
2019-03-31T02:12:36.852Z,87.41
2019-03-31T02:15:08.452Z,87.57
2019-03-31T02:17:38.993Z,87.59
2019-03-31T02:20:09.443Z,87.11
2019-03-31T02:22:39.902Z,87.03
2019-03-31T02:25:10.466Z,87.00
2019-03-31T02:27:40.860Z,86.96
2019-03-31T02:30:11.409Z,86.93
2019-03-31T02:32:41.870Z,86.79
2019-03-31T02:35:12.497Z,86.85
2019-03-31T02:37:43.010Z,86.70
2019-03-31T02:40:13.437Z,86.79
2019-03-31T02:42:43.893Z,87.44
2019-03-31T02:45:14.431Z,87.60
2019-03-31T02:47:44.901Z,87.16
2019-03-31T02:50:36.429Z,87.16
2019-03-31T02:53:06.918Z,87.14
2019-03-31T02:55:37.538Z,86.96
2019-03-31T02:58:09.016Z,86.89
2019-03-31T03:00:39.447Z,86.86
2019-03-31T03:03:10.329Z,87.12
2019-03-31T03:05:41.976Z,86.67
2019-03-31T03:08:14.253Z,86.53
2019-03-31T03:10:45.652Z,86.29
2019-03-31T03:13:16.177Z,86.71
2019-03-31T03:15:58.477Z,86.93
2019-03-31T03:18:29.090Z,86.93
2019-03-31T03:20:59.562Z,85.99
2019-03-31T03:23:30.062Z,86.66
2019-03-31T03:26:00.558Z,87.30
2019-03-31T03:28:31.046Z,87.38
2019-03-31T03:31:01.619Z,87.35
2019-03-31T03:33:32.314Z,87.28
2019-03-31T03:36:02.749Z,87.07
2019-03-31T03:38:33.257Z,87.03
2019-03-31T03:41:03.838Z,87.17
2019-03-31T03:43:34.319Z,87.58
2019-03-31T03:46:04.872Z,87.61
2019-03-31T03:48:35.671Z,87.70
2019-03-31T03:51:06.189Z,87.31
2019-03-31T03:53:36.708Z,86.97
2019-03-31T03:56:07.184Z,87.13
2019-03-31T03:58:37.679Z,87.16
2019-03-31T04:01:12.595Z,87.40
2019-03-31T04:03:43.095Z,87.12
2019-03-31T04:06:13.559Z,86.89
2019-03-31T04:08:44.026Z,86.43
2019-03-31T04:11:21.581Z,85.90
2019-03-31T04:13:50.938Z,85.61
2019-03-31T04:16:21.379Z,85.64
2019-03-31T04:18:51.953Z,85.23
2019-03-31T04:21:22.398Z,84.98
2019-03-31T04:23:52.928Z,84.87
2019-03-31T04:26:23.397Z,85.16
2019-03-31T04:28:53.907Z,84.62
2019-03-31T04:31:24.371Z,84.00
2019-03-31T04:33:54.862Z,83.42
2019-03-31T04:36:25.301Z,83.67
2019-03-31T04:38:59.896Z,83.31
2019-03-31T04:41:27.938Z,82.76
2019-03-31T04:43:58.450Z,82.27
2019-03-31T04:46:28.893Z,81.62
2019-03-31T04:48:59.385Z,81.05
2019-03-31T04:51:29.850Z,80.86
2019-03-31T04:54:00.411Z,80.42
2019-03-31T04:56:30.849Z,79.96
2019-03-31T04:59:01.350Z,79.58
2019-03-31T05:01:31.873Z,79.45
2019-03-31T05:04:05.067Z,78.58
2019-03-31T05:06:34.548Z,78.57
2019-03-31T05:09:06.447Z,77.85
2019-03-31T05:11:37.785Z,77.26
2019-03-31T05:14:08.280Z,76.86
2019-03-31T05:16:38.749Z,76.53
2019-03-31T05:19:09.309Z,76.13
2019-03-31T05:21:39.799Z,75.29
2019-03-31T05:24:10.325Z,74.89
2019-03-31T05:26:40.798Z,74.18
2019-03-31T05:29:11.405Z,73.67
2019-03-31T05:31:41.895Z,73.28
2019-03-31T05:34:18.818Z,72.59
2019-03-31T05:36:44.703Z,72.38
2019-03-31T05:39:15.211Z,71.68
2019-03-31T05:41:45.690Z,71.19
2019-03-31T05:44:16.240Z,70.23
2019-03-31T05:46:46.696Z,69.80
2019-03-31T05:49:17.209Z,69.11
2019-03-31T05:51:47.700Z,68.87
2019-03-31T05:54:18.223Z,68.46
2019-03-31T05:56:48.683Z,67.93
2019-03-31T05:59:19.210Z,66.44
2019-03-31T06:01:49.750Z,66.22
2019-03-31T06:04:32.597Z,66.22
2019-03-31T06:06:52.571Z,65.76
2019-03-31T06:09:23.177Z,64.60
2019-03-31T06:11:54.533Z,63.47
2019-03-31T06:14:25.053Z,63.47
2019-03-31T06:16:55.559Z,62.77
2019-03-31T06:19:26.165Z,61.10
2019-03-31T06:21:56.639Z,60.06
2019-03-31T06:24:27.212Z,59.83
2019-03-31T06:26:57.680Z,60.23
2019-03-31T06:29:28.200Z,60.21
2019-03-31T06:31:58.772Z,59.68
2019-03-31T06:34:29.258Z,60.04
2019-03-31T06:36:59.823Z,60.02
2019-03-31T06:39:30.349Z,59.27
2019-03-31T06:42:00.859Z,59.56
2019-03-31T06:44:31.370Z,58.44
2019-03-31T06:47:01.885Z,58.27
2019-03-31T06:49:32.443Z,56.93
2019-03-31T06:52:02.911Z,57.47
2019-03-31T06:54:33.471Z,57.91
2019-03-31T06:57:03.920Z,57.07
2019-03-31T06:59:34.410Z,56.86
2019-03-31T07:02:04.927Z,58.93
2019-03-31T07:04:35.461Z,59.01
2019-03-31T07:07:05.926Z,58.03
2019-03-31T07:09:36.472Z,57.25
2019-03-31T07:12:07.846Z,56.88
2019-03-31T07:14:38.409Z,55.70
2019-03-31T07:17:08.877Z,55.38
2019-03-31T07:19:39.510Z,55.65
2019-03-31T07:22:09.976Z,55.18
2019-03-31T07:24:40.496Z,56.58
2019-03-31T07:27:10.961Z,55.38
2019-03-31T07:29:41.878Z,54.78
2019-03-31T07:32:12.370Z,54.08
2019-03-31T07:34:42.984Z,53.38
2019-03-31T07:37:13.457Z,53.31
2019-03-31T07:39:45.963Z,53.82
2019-03-31T07:42:16.281Z,53.54
2019-03-31T07:44:46.836Z,54.02
2019-03-31T07:47:17.295Z,51.76
2019-03-31T07:49:47.800Z,53.46
2019-03-31T07:52:18.275Z,52.19
2019-03-31T07:54:48.811Z,52.76
2019-03-31T07:57:19.319Z,52.14
2019-03-31T07:59:49.901Z,51.83
2019-03-31T08:02:20.397Z,52.28
2019-03-31T08:04:51.152Z,51.95
2019-03-31T08:07:21.631Z,52.00
2019-03-31T08:09:52.202Z,52.86
2019-03-31T08:12:23.668Z,52.10
2019-03-31T08:14:54.171Z,51.47
2019-03-31T08:17:24.676Z,51.77
2019-03-31T08:19:55.257Z,52.64
2019-03-31T08:22:25.785Z,53.63
2019-03-31T08:24:56.341Z,52.22
2019-03-31T08:27:26.886Z,51.93
2019-03-31T08:30:00.833Z,50.75
2019-03-31T08:32:31.218Z,50.96
2019-03-31T08:35:01.742Z,49.52
2019-03-31T08:37:32.458Z,50.75
2019-03-31T08:40:03.125Z,50.23
2019-03-31T08:42:33.653Z,49.96
2019-03-31T08:45:10.483Z,49.20
2019-03-31T08:47:41.008Z,49.29
2019-03-31T08:50:14.013Z,49.61
2019-03-31T08:52:44.535Z,48.84
2019-03-31T08:55:15.496Z,47.85
2019-03-31T08:57:46.083Z,47.08
2019-03-31T09:00:22.368Z,47.68
2019-03-31T09:02:52.874Z,47.37
2019-03-31T09:05:23.420Z,46.34
2019-03-31T09:07:54.037Z,45.69
2019-03-31T09:10:27.232Z,46.21
2019-03-31T09:12:58.581Z,46.63
2019-03-31T09:15:29.062Z,46.61
2019-03-31T09:17:59.555Z,46.64
2019-03-31T09:20:30.190Z,47.69
2019-03-31T09:23:00.691Z,45.82
2019-03-31T09:25:31.269Z,46.33
2019-03-31T09:28:01.788Z,45.23
2019-03-31T09:30:34.898Z,46.46
2019-03-31T09:33:05.437Z,46.64
2019-03-31T09:35:35.922Z,45.11
2019-03-31T09:38:06.365Z,45.86
2019-03-31T09:40:36.929Z,45.34
2019-03-31T09:43:09.512Z,43.76
2019-03-31T09:45:40.067Z,44.54
2019-03-31T09:48:10.545Z,43.55
2019-03-31T09:50:41.076Z,43.25
2019-03-31T09:53:11.576Z,44.15
2019-03-31T09:55:42.088Z,43.47
2019-03-31T09:58:12.567Z,43.65
2019-03-31T10:00:45.972Z,41.83
2019-03-31T10:03:16.739Z,42.25
2019-03-31T10:05:48.124Z,41.57
2019-03-31T10:08:22.022Z,40.33
2019-03-31T10:10:51.422Z,41.05
2019-03-31T10:13:22.749Z,38.83
2019-03-31T10:15:54.277Z,40.90
2019-03-31T10:18:24.753Z,38.99
2019-03-31T10:20:55.344Z,40.09
2019-03-31T10:23:25.795Z,40.98
2019-03-31T10:25:56.347Z,39.43
2019-03-31T10:28:26.836Z,40.03
2019-03-31T10:30:57.356Z,40.50
2019-03-31T10:33:27.846Z,38.09
2019-03-31T10:35:58.366Z,34.54
2019-03-31T10:38:28.829Z,35.69
2019-03-31T10:40:59.339Z,35.27
2019-03-31T10:43:29.768Z,36.81
2019-03-31T10:46:00.266Z,34.95
2019-03-31T10:48:30.733Z,35.11
2019-03-31T10:51:01.981Z,33.63
2019-03-31T10:53:32.421Z,32.13
2019-03-31T10:56:02.938Z,32.97
2019-03-31T10:58:33.400Z,33.12
2019-03-31T11:01:03.900Z,33.51
2019-03-31T11:03:34.344Z,32.17
2019-03-31T11:06:04.812Z,30.75
2019-03-31T11:08:35.545Z,31.99
2019-03-31T11:11:06.041Z,30.86
2019-03-31T11:13:37.418Z,31.78
2019-03-31T11:16:07.936Z,30.88
2019-03-31T11:18:38.425Z,30.49
2019-03-31T11:21:10.560Z,32.73
2019-03-31T11:23:41.006Z,31.22
2019-03-31T11:26:11.463Z,30.16
2019-03-31T11:28:41.918Z,32.39
2019-03-31T11:31:12.413Z,29.92
2019-03-31T11:33:43.795Z,29.85
2019-03-31T11:36:14.309Z,31.93
2019-03-31T11:38:44.733Z,32.28
2019-03-31T11:41:15.221Z,31.71
2019-03-31T11:43:45.664Z,29.01
2019-03-31T11:46:16.135Z,28.80
2019-03-31T11:48:46.614Z,29.48
2019-03-31T11:51:17.105Z,29.06
2019-03-31T11:53:47.553Z,29.24
2019-03-31T11:56:18.054Z,29.56
2019-03-31T11:58:48.505Z,30.19
2019-03-31T12:01:18.975Z,27.94
2019-03-31T12:03:49.415Z,28.20
2019-03-31T12:06:19.897Z,28.61
2019-03-31T12:08:50.375Z,27.93
2019-03-31T12:11:20.861Z,27.54
2019-03-31T12:13:52.197Z,26.91
2019-03-31T12:16:24.253Z,26.57
2019-03-31T12:18:54.670Z,27.99
2019-03-31T12:21:25.223Z,28.38
2019-03-31T12:23:55.662Z,25.84
2019-03-31T12:26:26.214Z,26.08
2019-03-31T12:28:56.697Z,28.55
2019-03-31T12:31:27.204Z,25.47
2019-03-31T12:33:57.690Z,26.60
2019-03-31T12:36:28.189Z,27.57
2019-03-31T12:38:58.656Z,27.77
2019-03-31T12:41:29.142Z,27.73
2019-03-31T12:43:59.570Z,28.33
2019-03-31T12:46:30.085Z,27.43
2019-03-31T12:49:00.594Z,25.75
2019-03-31T12:51:31.050Z,27.64
2019-03-31T12:54:01.480Z,28.74
2019-03-31T12:56:31.997Z,27.01
2019-03-31T12:59:02.439Z,28.14
2019-03-31T13:01:32.989Z,27.03
2019-03-31T13:04:03.414Z,28.60
2019-03-31T13:06:33.930Z,30.64
2019-03-31T13:09:06.473Z,30.10
2019-03-31T13:11:36.987Z,28.10
2019-03-31T13:14:08.597Z,29.49
2019-03-31T13:16:39.106Z,28.49
2019-03-31T13:19:09.569Z,31.01
2019-03-31T13:21:41.234Z,27.59
2019-03-31T13:24:11.678Z,29.29
2019-03-31T13:26:42.147Z,29.80
2019-03-31T13:29:12.641Z,28.20
2019-03-31T13:31:43.078Z,28.11
2019-03-31T13:34:13.487Z,27.82
2019-03-31T13:36:43.930Z,27.42
2019-03-31T13:39:14.475Z,26.75
2019-03-31T13:41:47.114Z,25.49
2019-03-31T13:44:17.106Z,26.66
2019-03-31T13:46:47.640Z,26.83
2019-03-31T13:49:18.070Z,25.87
2019-03-31T13:51:48.562Z,26.00
2019-03-31T13:54:18.989Z,25.61
2019-03-31T13:56:50.381Z,25.17
2019-03-31T13:59:21.221Z,25.52
2019-03-31T14:01:51.734Z,23.78
2019-03-31T14:04:22.199Z,24.79
2019-03-31T14:06:52.784Z,26.29
2019-03-31T14:09:23.219Z,25.28
2019-03-31T14:11:54.466Z,26.08
2019-03-31T14:14:26.543Z,27.45
2019-03-31T14:16:57.046Z,29.24
2019-03-31T14:19:27.475Z,31.94
2019-03-31T14:21:58.036Z,32.02
2019-03-31T14:24:28.469Z,31.83
2019-03-31T14:26:58.982Z,32.26
2019-03-31T14:29:29.423Z,32.68
2019-03-31T14:31:59.935Z,32.66
2019-03-31T14:34:30.353Z,33.22
2019-03-31T14:37:00.832Z,33.64
2019-03-31T14:39:31.287Z,34.16
2019-03-31T14:42:01.770Z,34.49
2019-03-31T14:44:32.240Z,35.32
2019-03-31T14:47:02.728Z,35.04
2019-03-31T14:49:33.227Z,35.18
2019-03-31T14:52:03.708Z,34.40
2019-03-31T14:54:34.175Z,34.74
2019-03-31T14:57:04.751Z,34.73
2019-03-31T14:59:35.197Z,34.27
2019-03-31T15:02:05.704Z,35.04
2019-03-31T15:04:36.146Z,35.25
2019-03-31T15:07:06.628Z,36.03
2019-03-31T15:09:37.064Z,36.28
2019-03-31T15:12:07.598Z,36.22
2019-03-31T15:14:39.020Z,36.37
2019-03-31T15:17:09.516Z,37.02
2019-03-31T15:19:39.958Z,37.89
2019-03-31T15:22:10.552Z,37.51
2019-03-31T15:24:40.978Z,36.31
2019-03-31T15:27:11.462Z,36.48
2019-03-31T15:29:41.921Z,36.89
2019-03-31T15:32:12.384Z,36.83
2019-03-31T15:34:42.814Z,36.81
2019-03-31T15:37:13.316Z,37.77
2019-03-31T15:39:43.770Z,37.18
2019-03-31T15:42:14.256Z,37.84
2019-03-31T15:44:44.748Z,36.96
2019-03-31T15:47:15.234Z,37.54
2019-03-31T15:49:45.681Z,38.58
2019-03-31T15:52:16.207Z,38.24
2019-03-31T15:54:46.682Z,37.87
2019-03-31T15:57:17.329Z,38.23
2019-03-31T15:59:56.955Z,38.40
2019-03-31T16:02:29.005Z,38.37
2019-03-31T16:04:59.444Z,40.38
2019-03-31T16:07:29.922Z,40.58
2019-03-31T16:10:00.407Z,41.15
2019-03-31T16:12:30.876Z,42.43
2019-03-31T16:15:02.295Z,43.01
2019-03-31T16:17:32.802Z,43.78
2019-03-31T16:20:03.355Z,43.80
2019-03-31T16:22:33.935Z,43.89
2019-03-31T16:25:22.520Z,46.68
2019-03-31T16:27:53.025Z,46.87
2019-03-31T16:30:23.485Z,48.48
2019-03-31T16:32:53.992Z,48.92
2019-03-31T16:35:24.459Z,48.92
2019-03-31T16:37:54.947Z,50.55
2019-03-31T16:40:25.417Z,51.10
2019-03-31T16:42:55.909Z,52.07
2019-03-31T16:45:26.383Z,53.38
2019-03-31T16:47:56.875Z,54.09
2019-03-31T16:50:27.322Z,54.20
2019-03-31T16:52:57.840Z,53.88
2019-03-31T16:55:28.273Z,53.74
2019-03-31T16:57:58.798Z,53.91
2019-03-31T17:00:29.283Z,54.35
2019-03-31T17:02:59.795Z,54.58
2019-03-31T17:05:32.241Z,55.00
2019-03-31T17:08:02.723Z,54.14
2019-03-31T17:10:33.172Z,55.21
2019-03-31T17:13:03.663Z,53.91
2019-03-31T17:15:35.176Z,53.77
2019-03-31T17:18:05.645Z,53.24
2019-03-31T17:20:36.125Z,53.55
2019-03-31T17:23:06.729Z,52.83
2019-03-31T17:25:37.117Z,53.53
2019-03-31T17:28:10.129Z,51.85
2019-03-31T17:30:39.760Z,52.54
2019-03-31T17:33:11.357Z,53.75
2019-03-31T17:35:42.583Z,53.89
2019-03-31T17:38:13.068Z,53.68
2019-03-31T17:40:43.524Z,55.12
2019-03-31T17:43:14.034Z,55.51
2019-03-31T17:45:44.521Z,54.83
2019-03-31T17:48:15.003Z,54.31
2019-03-31T17:50:45.442Z,54.28
2019-03-31T17:53:15.915Z,55.19
2019-03-31T17:55:46.393Z,55.35
2019-03-31T17:58:16.894Z,55.32
2019-03-31T18:00:47.357Z,56.05
2019-03-31T18:03:17.847Z,56.34
2019-03-31T18:05:48.283Z,57.71
2019-03-31T18:08:18.780Z,56.75
2019-03-31T18:10:49.249Z,57.28
2019-03-31T18:13:19.740Z,57.12
2019-03-31T18:15:53.519Z,57.17
2019-03-31T18:18:23.982Z,56.05
2019-03-31T18:20:54.443Z,56.71
2019-03-31T18:23:25.025Z,57.24
2019-03-31T18:25:55.483Z,57.67
2019-03-31T18:28:25.952Z,58.15
2019-03-31T18:30:56.403Z,59.49
2019-03-31T18:33:26.913Z,59.47
2019-03-31T18:35:57.498Z,59.38
2019-03-31T18:38:27.977Z,59.04
2019-03-31T18:40:58.419Z,59.05
2019-03-31T18:43:28.932Z,58.84
2019-03-31T18:45:59.670Z,58.46
2019-03-31T18:48:30.207Z,59.55
2019-03-31T18:51:00.652Z,59.73
2019-03-31T18:53:49.070Z,60.57
2019-03-31T18:56:37.224Z,60.57
2019-03-31T18:59:18.014Z,61.04
2019-03-31T19:01:59.224Z,61.04
2019-03-31T19:04:46.245Z,61.30
2019-03-31T19:07:24.175Z,61.11
2019-03-31T19:09:59.219Z,61.37
2019-03-31T19:12:47.638Z,59.28
2019-03-31T19:15:19.723Z,59.07
2019-03-31T19:17:52.736Z,59.07
2019-03-31T19:20:33.794Z,59.13
2019-03-31T19:23:06.194Z,58.40
2019-03-31T19:25:41.385Z,59.10
2019-03-31T19:28:13.420Z,58.65
2019-03-31T19:31:03.576Z,59.24
2019-03-31T19:33:50.646Z,59.24
2019-03-31T19:36:31.523Z,58.86
2019-03-31T19:39:12.675Z,58.86
2019-03-31T19:41:53.715Z,58.46
2019-03-31T19:44:44.090Z,58.00
2019-03-31T19:47:24.801Z,57.42
2019-03-31T19:50:02.632Z,57.42
2019-03-31T19:52:34.677Z,57.76
2019-03-31T19:55:16.689Z,56.77
2019-03-31T19:58:07.031Z,56.86
2019-03-31T20:00:39.023Z,56.94
2019-03-31T20:03:27.472Z,56.94
2019-03-31T20:05:59.471Z,56.87
2019-03-31T20:08:34.511Z,57.04
2019-03-31T20:11:15.768Z,56.34
2019-03-31T20:13:47.764Z,55.52
2019-03-31T20:16:25.923Z,55.35
2019-03-31T20:18:58.024Z,55.43
2019-03-31T20:21:32.209Z,54.97
2019-03-31T20:24:18.721Z,55.63
2019-03-31T20:27:06.978Z,56.01
2019-03-31T20:29:55.611Z,55.51
2019-03-31T20:32:33.430Z,56.10
2019-03-31T20:35:09.003Z,56.10
2019-03-31T20:37:41.313Z,55.84
2019-03-31T20:40:19.436Z,56.38
2019-03-31T20:42:54.409Z,58.02
2019-03-31T20:45:24.858Z,58.78
2019-03-31T20:47:55.317Z,59.52
2019-03-31T20:50:25.948Z,60.18
2019-03-31T20:52:56.418Z,60.18
2019-03-31T20:55:26.942Z,59.14
2019-03-31T20:57:57.373Z,59.61
2019-03-31T21:00:27.903Z,60.44
2019-03-31T21:02:58.330Z,60.44
2019-03-31T21:05:28.840Z,60.39
2019-03-31T21:07:59.312Z,60.43
2019-03-31T21:10:30.898Z,60.65
2019-03-31T21:13:01.518Z,60.63
2019-03-31T21:15:32.080Z,60.08
2019-03-31T21:18:02.658Z,60.32
2019-03-31T21:20:34.039Z,59.59
2019-03-31T21:23:04.491Z,59.47
2019-03-31T21:25:34.910Z,59.74
2019-03-31T21:28:05.445Z,58.82
2019-03-31T21:30:36.286Z,59.55
2019-03-31T21:33:06.752Z,59.38
2019-03-31T21:35:37.178Z,59.70
2019-03-31T21:38:07.697Z,59.45
2019-03-31T21:40:42.461Z,56.48
2019-03-31T21:43:12.941Z,54.99
2019-03-31T21:45:43.350Z,54.25
2019-03-31T21:48:13.879Z,53.48
2019-03-31T21:50:44.342Z,53.78
2019-03-31T21:53:14.831Z,54.01
2019-03-31T21:55:45.242Z,53.37
2019-03-31T21:58:15.644Z,53.30
2019-03-31T22:00:47.655Z,53.32
2019-03-31T22:03:18.327Z,53.29
2019-03-31T22:05:48.740Z,53.51
2019-03-31T22:08:19.139Z,53.43
2019-03-31T22:10:49.560Z,53.43
2019-03-31T22:13:20.058Z,54.03
2019-03-31T22:15:50.483Z,54.23
2019-03-31T22:18:20.921Z,55.43
2019-03-31T22:20:51.492Z,55.43
2019-03-31T22:23:21.970Z,55.95
2019-03-31T22:25:52.424Z,56.17
2019-03-31T22:28:23.003Z,56.37
2019-03-31T22:30:53.440Z,56.53
2019-03-31T22:33:23.907Z,56.37
2019-03-31T22:36:12.527Z,56.88
2019-03-31T22:38:43.021Z,57.46
2019-03-31T22:41:13.447Z,58.06
2019-03-31T22:43:43.958Z,58.29
2019-03-31T22:46:14.436Z,58.28
2019-03-31T22:48:44.938Z,58.78
2019-03-31T22:51:15.389Z,58.94
2019-03-31T22:53:45.848Z,59.30
2019-03-31T22:56:16.305Z,59.94
2019-03-31T22:58:46.768Z,59.86
2019-03-31T23:01:17.317Z,59.94
2019-03-31T23:03:47.796Z,59.96
2019-03-31T23:06:18.248Z,60.34
2019-03-31T23:08:48.745Z,60.19
2019-03-31T23:11:19.227Z,60.57
2019-03-31T23:13:49.686Z,60.58
2019-03-31T23:16:20.136Z,61.21
2019-03-31T23:18:50.684Z,60.82
2019-03-31T23:21:21.334Z,61.04
2019-03-31T23:23:51.828Z,60.77
2019-03-31T23:26:22.269Z,61.13
2019-03-31T23:28:52.809Z,60.90
2019-03-31T23:31:23.214Z,60.81
2019-03-31T23:33:53.709Z,61.67
2019-03-31T23:36:24.164Z,61.35
2019-03-31T23:38:58.215Z,61.17
2019-03-31T23:41:26.717Z,60.89
2019-03-31T23:43:57.198Z,61.24
2019-03-31T23:46:27.638Z,61.26
2019-03-31T23:48:58.113Z,61.44
2019-03-31T23:51:28.512Z,61.51
2019-03-31T23:53:58.974Z,61.61
2019-03-31T23:56:29.393Z,61.70
2019-03-31T23:58:59.878Z,61.56
